Bismarck, ND

9:40 AM CST on February 11, 2016 (GMT -0600)
Pacific Avenue Bismarck | | Change Station
CLOSE
Current Station
Personal Weather Station
Location: Bismarck, ND
Elevation: 1722 ft
Nearby Weather Stations

Elev 1722 ft 46.83 °N, 100.75 °W | Updated 11 minutes ago

Light Snow
Light Snow
18.0 °F
Feels Like 13 °F
N
3.2
Wind Variable Wind from East

Today
High -- | Low -- °F
--% Chance of Precip.
Yesterday
High -- | Low -- °F
Precip. -- in
Pressure 30.21 in
Visibility 1.0 miles
Clouds Overcast 2600 ft
Windchill 13 °F
Dew Point 15 °F
Humidity 88%
Rainfall 0.00 in
Snow Depth Not available.
7:54 AM 6:01 PM
Waxing Crescent, 12% visible
METAR KBIS 111452Z 10005KT 1SM R31/5000VP6000FT -SN OVC026 M07/M09 A3012 RMK AO2 SLP229 P0001 60002 T10671094 56007
Pressure 30.21 in
Visibility 1.0 miles
Clouds Overcast 2600 ft
Windchill 13 °F
Dew Point 15 °F
Humidity 88%
Rainfall 0.00 in
Snow Depth Not available.
7:54 AM 6:01 PM
Waxing Crescent, 12% visible
METAR KBIS 111452Z 10005KT 1SM R31/5000VP6000FT -SN OVC026 M07/M09 A3012 RMK AO2 SLP229 P0001 60002 T10671094 56007

10-Day Weather Forecast

Almanac

Astronomy

Feb. 11, 2016 Rise Set
Actual Time
Civil Twilight
Nautical Twilight
Astronomical Twilight
Moon
Length of Visible Light
Length of Day
Tomorrow will be .
, % of the Moon is Illuminated

Today's Extremes

State Highs State Lows

Community

WunderPhotos

Upload Photos

1,892,078 photos uploaded!

WunderBlog® & News

Nearby

Air Quality

  Air Quality AQ Index Pollutant
Not available.

Snow Depth

Station Depth Elevation

Earthquake Activity

City Distance Mag. Time & Date
Minimum magnitude displayed is 2.5.

Coastal Water Temperatures

Place Temperature

Stations

Nearby Weather Stations

Station Location Temp. Windchill Dew Point Humidity Wind Precip. Elev Updated Type
                   

Watches & Warnings

There are currently no watches in effect.